createdAt,value
2023-04-09T00:05:11.385Z,10.48
2023-04-09T00:15:27.938Z,10.60
2023-04-09T00:25:35.538Z,10.46
2023-04-09T00:35:38.531Z,10.48
2023-04-09T00:45:43.358Z,10.38
2023-04-09T00:55:46.912Z,10.28
2023-04-09T01:06:03.094Z,10.38
2023-04-09T01:16:08.355Z,10.33
2023-04-09T01:26:22.480Z,10.24
2023-04-09T01:36:32.555Z,10.22
2023-04-09T01:46:36.724Z,10.18
2023-04-09T01:56:46.538Z,10.21
2023-04-09T02:06:58.112Z,10.26
2023-04-09T02:17:03.113Z,10.15
2023-04-09T02:27:06.186Z,10.17
2023-04-09T02:37:10.684Z,10.25
2023-04-09T02:47:13.678Z,10.15
2023-04-09T02:57:18.052Z,10.09
2023-04-09T03:07:21.028Z,10.04
2023-04-09T03:17:27.340Z,10.04
2023-04-09T03:27:30.748Z,10.05
2023-04-09T03:37:35.544Z,9.92
2023-04-09T03:47:39.199Z,9.91
2023-04-09T03:57:44.049Z,9.79
2023-04-09T04:07:51.724Z,9.73
2023-04-09T04:18:03.384Z,9.75
2023-04-09T04:28:25.076Z,9.59
2023-04-09T04:38:29.609Z,9.50
2023-04-09T04:48:35.495Z,9.35
2023-04-09T04:58:39.969Z,9.07
2023-04-09T05:08:43.084Z,8.70
2023-04-09T05:18:48.126Z,8.28
2023-04-09T05:28:52.626Z,8.08
2023-04-09T05:38:59.493Z,8.02
2023-04-09T05:49:03.237Z,7.88
2023-04-09T05:59:09.263Z,7.90
2023-04-09T06:09:12.736Z,7.90
2023-04-09T06:19:18.719Z,8.03
2023-04-09T06:29:23.752Z,8.11
2023-04-09T06:39:29.001Z,8.23
2023-04-09T06:49:31.981Z,8.32
2023-04-09T06:59:36.339Z,8.55
2023-04-09T07:09:39.327Z,8.72
2023-04-09T07:19:43.698Z,9.02
2023-04-09T07:29:46.741Z,9.55
2023-04-09T07:39:51.398Z,10.16
2023-04-09T07:49:54.364Z,10.55
2023-04-09T07:59:58.780Z,10.85
2023-04-09T08:10:01.786Z,11.16
2023-04-09T08:20:07.393Z,11.22
2023-04-09T08:30:11.455Z,11.56
2023-04-09T08:40:15.912Z,11.88
2023-04-09T08:50:18.930Z,12.97
2023-04-09T09:00:23.343Z,12.82
2023-04-09T09:10:38.905Z,13.22
2023-04-09T09:20:43.337Z,13.87
2023-04-09T09:30:49.204Z,13.59
2023-04-09T09:40:53.821Z,14.12
2023-04-09T09:50:57.015Z,13.92
2023-04-09T10:01:03.000Z,14.46
2023-04-09T10:11:07.815Z,14.47
2023-04-09T10:21:21.162Z,14.06
2023-04-09T10:31:24.413Z,14.64
2023-04-09T10:41:30.917Z,15.00
2023-04-09T10:51:36.413Z,15.16
2023-04-09T11:01:40.825Z,15.34
2023-04-09T11:11:43.672Z,16.03
2023-04-09T11:21:49.209Z,15.79
2023-04-09T11:31:53.369Z,16.06
2023-04-09T11:41:57.883Z,15.79
2023-04-09T11:52:01.894Z,15.94
2023-04-09T12:02:07.518Z,16.66
2023-04-09T12:12:11.446Z,16.88
2023-04-09T12:22:16.101Z,17.34
2023-04-09T12:32:19.415Z,17.68
2023-04-09T12:42:24.077Z,17.26
2023-04-09T12:52:27.099Z,17.22
2023-04-09T13:02:31.852Z,16.58
2023-04-09T13:12:34.971Z,17.33
2023-04-09T13:22:39.344Z,17.18
2023-04-09T13:32:42.558Z,17.24
2023-04-09T13:42:46.932Z,17.55
2023-04-09T13:52:49.671Z,17.09
2023-04-09T14:02:54.187Z,17.52
2023-04-09T14:12:58.222Z,17.75
2023-04-09T14:23:02.765Z,17.57
2023-04-09T14:33:05.768Z,17.44
2023-04-09T14:43:10.118Z,17.30
2023-04-09T14:53:14.438Z,17.03
2023-04-09T15:03:19.088Z,17.62
2023-04-09T15:13:22.216Z,17.50
2023-04-09T15:23:26.718Z,16.85
2023-04-09T15:33:31.124Z,17.24
2023-04-09T15:43:35.499Z,17.72
2023-04-09T15:53:38.535Z,18.19
2023-04-09T16:03:42.886Z,17.19
2023-04-09T16:13:46.222Z,16.75
2023-04-09T16:23:50.828Z,16.85
2023-04-09T16:33:53.916Z,16.52
2023-04-09T16:43:58.260Z,15.97
2023-04-09T16:54:01.122Z,16.38
2023-04-09T17:04:05.657Z,15.95
2023-04-09T17:14:08.747Z,15.71
2023-04-09T17:24:13.123Z,15.57
2023-04-09T17:34:16.398Z,15.18
2023-04-09T17:44:20.832Z,14.80
2023-04-09T17:54:23.865Z,14.47
2023-04-09T18:04:28.386Z,14.13
2023-04-09T18:14:32.585Z,13.87
2023-04-09T18:24:37.002Z,13.55
2023-04-09T18:34:39.991Z,13.23
2023-04-09T18:44:45.693Z,13.02
2023-04-09T18:54:49.221Z,12.76
2023-04-09T19:04:55.905Z,12.59
2023-04-09T19:15:01.002Z,12.38
2023-04-09T19:25:07.468Z,12.18
2023-04-09T19:35:11.135Z,12.12
2023-04-09T19:45:15.772Z,11.96
2023-04-09T19:55:18.907Z,11.72
2023-04-09T20:05:23.595Z,11.59
2023-04-09T20:15:27.206Z,11.48
2023-04-09T20:25:34.817Z,11.46
2023-04-09T20:35:37.820Z,11.32
2023-04-09T20:45:42.222Z,11.23
2023-04-09T20:55:45.969Z,11.25
2023-04-09T21:05:50.368Z,11.26
2023-04-09T21:15:53.457Z,11.17
2023-04-09T21:25:57.861Z,11.08
2023-04-09T21:36:01.413Z,11.00
2023-04-09T21:46:06.336Z,10.86
2023-04-09T21:56:09.375Z,10.71
2023-04-09T22:06:13.746Z,10.48
2023-04-09T22:16:17.223Z,10.35
2023-04-09T22:26:22.022Z,10.28
2023-04-09T22:36:25.118Z,10.15
2023-04-09T22:46:29.891Z,10.02
2023-04-09T22:56:33.632Z,9.87
2023-04-09T23:06:38.130Z,9.82
2023-04-09T23:16:41.112Z,9.77
2023-04-09T23:26:45.632Z,9.71
2023-04-09T23:36:48.634Z,9.71
2023-04-09T23:46:53.318Z,9.78
2023-04-09T23:56:57.723Z,9.78
